createdAt,value
2023-02-20T00:01:30.095Z,2.33
2023-02-20T00:03:56.918Z,2.50
2023-02-20T00:06:23.716Z,2.83
2023-02-20T00:08:50.610Z,2.20
2023-02-20T00:11:17.450Z,2.60
2023-02-20T00:13:48.792Z,2.80
2023-02-20T00:16:16.205Z,2.20
2023-02-20T00:18:44.676Z,2.20
2023-02-20T00:21:11.938Z,2.37
2023-02-20T00:23:38.860Z,2.57
2023-02-20T00:26:10.445Z,2.93
2023-02-20T00:28:42.183Z,3.23
2023-02-20T00:31:15.024Z,2.40
2023-02-20T00:33:42.735Z,2.53
2023-02-20T00:36:15.306Z,2.87
2023-02-20T00:38:44.383Z,2.30
2023-02-20T00:41:14.176Z,2.37
2023-02-20T00:43:41.726Z,2.23
2023-02-20T00:46:13.391Z,2.63
2023-02-20T00:48:40.503Z,2.63
2023-02-20T00:51:07.291Z,2.80
2023-02-20T00:53:34.279Z,2.70
2023-02-20T00:56:01.073Z,2.70
2023-02-20T00:58:27.834Z,2.40
2023-02-20T01:00:54.608Z,2.23
2023-02-20T01:03:21.427Z,2.30
2023-02-20T01:05:48.133Z,2.40
2023-02-20T01:08:15.004Z,2.70
2023-02-20T01:10:41.877Z,2.50
2023-02-20T01:13:08.734Z,2.97
2023-02-20T01:15:35.549Z,2.53
2023-02-20T01:18:02.295Z,2.30
2023-02-20T01:20:29.209Z,2.60
2023-02-20T01:22:55.986Z,2.53
2023-02-20T01:25:22.832Z,2.40
2023-02-20T01:27:49.626Z,2.30
2023-02-20T01:30:16.858Z,2.43
2023-02-20T01:32:43.695Z,2.80
2023-02-20T01:35:11.138Z,2.40
2023-02-20T01:37:37.976Z,2.17
2023-02-20T01:40:05.931Z,2.60
2023-02-20T01:42:34.346Z,2.50
2023-02-20T01:45:22.635Z,2.10
2023-02-20T01:47:51.961Z,2.23
2023-02-20T01:50:21.207Z,2.60
2023-02-20T01:52:54.766Z,2.70
2023-02-20T01:55:28.453Z,2.80
2023-02-20T01:58:05.996Z,2.57
2023-02-20T02:00:33.188Z,3.30
2023-02-20T02:03:07.347Z,2.90
2023-02-20T02:05:35.406Z,2.47
2023-02-20T02:08:04.610Z,2.47
2023-02-20T02:10:37.127Z,2.30
2023-02-20T02:13:04.182Z,3.07
2023-02-20T02:15:30.913Z,3.97
2023-02-20T02:18:19.317Z,4.20
2023-02-20T02:21:00.676Z,3.43
2023-02-20T02:23:43.552Z,2.50
2023-02-20T02:26:25.374Z,2.50
2023-02-20T02:29:07.396Z,2.80
2023-02-20T02:31:52.200Z,3.83
2023-02-20T02:34:56.189Z,4.57
2023-02-20T02:37:34.746Z,3.60
2023-02-20T02:40:06.743Z,3.20
2023-02-20T02:42:45.973Z,2.83
2023-02-20T02:45:21.256Z,2.67
2023-02-20T02:48:05.759Z,2.83
2023-02-20T02:50:36.983Z,2.57
2023-02-20T02:53:06.487Z,2.17
2023-02-20T02:55:36.022Z,2.60
2023-02-20T02:58:05.159Z,2.70
2023-02-20T03:00:48.244Z,2.40
2023-02-20T03:03:28.233Z,2.57
2023-02-20T03:05:57.983Z,2.50
2023-02-20T03:08:43.489Z,2.30
2023-02-20T03:11:14.353Z,2.23
2023-02-20T03:14:11.158Z,2.90
2023-02-20T03:16:56.416Z,2.40
2023-02-20T03:19:32.232Z,2.93
2023-02-20T03:22:01.299Z,2.73
2023-02-20T03:24:30.397Z,2.47
2023-02-20T03:26:58.829Z,2.60
2023-02-20T03:29:34.946Z,3.07
2023-02-20T03:32:25.934Z,2.67
2023-02-20T03:35:13.272Z,2.77
2023-02-20T03:38:03.412Z,2.40
2023-02-20T03:40:49.896Z,3.00
2023-02-20T03:43:25.730Z,3.07
2023-02-20T03:46:03.320Z,2.57
2023-02-20T03:48:53.885Z,3.00
2023-02-20T03:51:22.329Z,2.83
2023-02-20T03:53:49.471Z,3.20
2023-02-20T03:56:20.564Z,2.97
2023-02-20T03:58:55.646Z,2.90
2023-02-20T04:01:25.585Z,2.77
2023-02-20T04:03:54.127Z,2.77
2023-02-20T04:06:23.541Z,2.60
2023-02-20T04:09:04.953Z,3.10
2023-02-20T04:11:38.868Z,3.20
2023-02-20T04:14:06.597Z,2.50
2023-02-20T04:16:38.905Z,2.63
2023-02-20T04:19:05.979Z,2.53
2023-02-20T04:21:39.065Z,2.63
2023-02-20T04:24:13.795Z,2.80
2023-02-20T04:26:40.918Z,3.07
2023-02-20T04:29:07.925Z,2.80
2023-02-20T04:31:35.033Z,3.13
2023-02-20T04:34:01.917Z,2.93
2023-02-20T04:36:28.795Z,2.93
2023-02-20T04:38:55.556Z,2.30
2023-02-20T04:41:22.454Z,2.70
2023-02-20T04:43:49.367Z,2.80
2023-02-20T04:46:16.801Z,2.60
2023-02-20T04:48:43.651Z,2.70
2023-02-20T04:51:11.061Z,2.60
2023-02-20T04:53:37.870Z,2.70
2023-02-20T04:56:04.851Z,2.90
2023-02-20T04:58:34.102Z,3.23
2023-02-20T05:01:01.027Z,3.43
2023-02-20T05:03:27.897Z,2.70
2023-02-20T05:05:54.781Z,2.90
2023-02-20T05:08:21.588Z,2.67
2023-02-20T05:10:48.360Z,2.80
2023-02-20T05:13:15.144Z,2.60
2023-02-20T05:15:42.051Z,3.07
2023-02-20T05:18:09.153Z,2.53
2023-02-20T05:20:54.343Z,2.67
2023-02-20T05:23:21.237Z,2.70
2023-02-20T05:25:48.176Z,2.43
2023-02-20T05:28:15.165Z,2.23
2023-02-20T05:30:41.983Z,2.33
2023-02-20T05:33:08.840Z,2.60
2023-02-20T05:35:36.068Z,2.37
2023-02-20T05:38:02.915Z,2.60
2023-02-20T05:40:29.766Z,2.63
2023-02-20T05:42:56.526Z,2.77
2023-02-20T05:45:23.340Z,2.20
2023-02-20T05:47:50.160Z,3.23
2023-02-20T05:50:17.094Z,3.50
2023-02-20T05:52:44.874Z,2.70
2023-02-20T05:55:11.725Z,2.30
2023-02-20T05:57:38.546Z,2.40
2023-02-20T06:00:05.804Z,2.30
2023-02-20T06:02:34.191Z,2.10
2023-02-20T06:05:00.959Z,1.97
2023-02-20T06:07:27.700Z,2.10
2023-02-20T06:09:56.021Z,2.70
2023-02-20T06:12:23.952Z,2.37
2023-02-20T06:14:51.781Z,3.17
2023-02-20T06:17:18.591Z,2.70
2023-02-20T06:19:45.552Z,2.83
2023-02-20T06:22:12.387Z,2.03
2023-02-20T06:24:39.189Z,2.60
2023-02-20T06:27:08.567Z,2.70
2023-02-20T06:29:35.410Z,2.63
2023-02-20T06:32:02.396Z,2.80
2023-02-20T06:34:33.127Z,2.63
2023-02-20T06:37:04.575Z,2.43
2023-02-20T06:39:32.600Z,2.33
2023-02-20T06:41:59.362Z,2.40
2023-02-20T06:44:27.371Z,2.50
2023-02-20T06:46:55.284Z,2.63
2023-02-20T06:49:22.113Z,3.73
2023-02-20T06:51:52.415Z,3.70
2023-02-20T06:54:22.122Z,3.13
2023-02-20T06:56:48.975Z,2.77
2023-02-20T06:59:15.917Z,2.83
2023-02-20T07:01:43.741Z,2.17
2023-02-20T07:04:20.116Z,2.07
2023-02-20T07:06:47.382Z,2.80
2023-02-20T07:09:15.025Z,2.50
2023-02-20T07:11:42.683Z,1.97
2023-02-20T07:14:09.893Z,2.00
2023-02-20T07:16:36.666Z,2.30
2023-02-20T07:19:03.435Z,2.30
2023-02-20T07:21:30.122Z,1.90
2023-02-20T07:23:56.929Z,1.77
2023-02-20T07:26:27.267Z,2.00
2023-02-20T07:28:55.168Z,2.10
2023-02-20T07:31:22.570Z,2.47
2023-02-20T07:33:49.419Z,2.47
2023-02-20T07:36:16.809Z,2.03
2023-02-20T07:38:43.724Z,2.37
2023-02-20T07:41:10.980Z,2.47
2023-02-20T07:43:37.780Z,2.13
2023-02-20T07:46:04.693Z,2.37
2023-02-20T07:48:31.488Z,2.30
2023-02-20T07:50:58.258Z,2.37
2023-02-20T07:53:25.069Z,2.17
2023-02-20T07:55:52.050Z,2.40
2023-02-20T07:58:19.002Z,2.00
2023-02-20T08:00:45.918Z,1.93
2023-02-20T08:03:12.622Z,2.20
2023-02-20T08:05:48.503Z,2.10
2023-02-20T08:08:15.736Z,2.23
2023-02-20T08:10:42.577Z,2.27
2023-02-20T08:13:09.477Z,2.20
2023-02-20T08:15:36.354Z,2.13
2023-02-20T08:18:06.100Z,2.07
2023-02-20T08:20:36.775Z,2.50
2023-02-20T08:23:05.398Z,2.87
2023-02-20T08:25:32.607Z,3.90
2023-02-20T08:27:59.620Z,20.00
2023-02-20T08:30:28.074Z,10.17
2023-02-20T08:32:55.736Z,2.30
2023-02-20T08:35:26.810Z,2.10
2023-02-20T08:37:53.892Z,2.17
2023-02-20T08:40:20.659Z,2.03
2023-02-20T08:42:50.703Z,2.20
2023-02-20T08:45:17.660Z,1.98
2023-02-20T08:47:44.501Z,1.85
2023-02-20T08:50:11.373Z,2.25
2023-02-20T08:52:38.155Z,2.37
2023-02-20T08:55:05.271Z,3.00
2023-02-20T08:57:32.050Z,2.60
2023-02-20T08:59:58.895Z,2.30
2023-02-20T09:02:28.906Z,3.27
2023-02-20T09:04:56.488Z,2.60
2023-02-20T09:07:24.258Z,3.00
2023-02-20T09:09:51.471Z,3.40
2023-02-20T09:12:19.290Z,2.20
2023-02-20T09:14:46.817Z,2.60
2023-02-20T09:17:13.826Z,2.50
2023-02-20T09:19:40.686Z,2.57
2023-02-20T09:22:07.818Z,2.40
2023-02-20T09:24:35.600Z,2.50
2023-02-20T09:27:03.968Z,2.20
2023-02-20T09:29:30.728Z,2.00
2023-02-20T09:31:57.818Z,2.30
2023-02-20T09:34:24.856Z,2.47
2023-02-20T09:36:51.803Z,2.20
2023-02-20T09:39:19.594Z,2.07
2023-02-20T09:41:54.638Z,2.70
2023-02-20T09:44:33.262Z,2.20
2023-02-20T09:47:08.340Z,2.03
2023-02-20T09:49:37.949Z,2.47
2023-02-20T09:52:10.658Z,2.10
2023-02-20T09:54:47.093Z,2.20
2023-02-20T09:57:18.830Z,2.23
2023-02-20T10:00:03.629Z,2.00
2023-02-20T10:02:37.969Z,2.23
2023-02-20T10:05:22.246Z,2.17
2023-02-20T10:07:51.002Z,2.20
2023-02-20T10:10:29.685Z,2.30
2023-02-20T10:13:18.365Z,1.90
2023-02-20T10:16:13.600Z,2.57
2023-02-20T10:18:59.376Z,2.20
2023-02-20T10:21:51.992Z,1.90
2023-02-20T10:24:33.118Z,2.07
2023-02-20T10:27:37.594Z,2.60
2023-02-20T10:30:06.448Z,2.00
2023-02-20T10:33:01.157Z,1.70
2023-02-20T10:35:36.341Z,1.43
2023-02-20T10:38:08.516Z,2.40
2023-02-20T10:40:48.149Z,2.03
2023-02-20T10:43:36.647Z,1.57
2023-02-20T10:46:48.481Z,1.47
2023-02-20T10:49:25.822Z,4.10
2023-02-20T10:51:59.537Z,1.93
2023-02-20T10:54:37.552Z,1.80
2023-02-20T10:57:19.358Z,1.30
2023-02-20T11:00:26.786Z,3.00
2023-02-20T11:02:59.275Z,1.63
2023-02-20T11:05:34.267Z,1.60
2023-02-20T11:08:01.221Z,1.83
2023-02-20T11:10:28.087Z,1.60
2023-02-20T11:13:00.403Z,2.00
2023-02-20T11:15:32.623Z,3.37
2023-02-20T11:17:59.958Z,1.10
2023-02-20T11:20:32.951Z,1.63
2023-02-20T11:23:03.658Z,1.17
2023-02-20T11:25:35.192Z,2.80
2023-02-20T11:28:19.130Z,2.10
2023-02-20T11:30:50.273Z,2.60
2023-02-20T11:33:29.162Z,2.30
2023-02-20T11:35:59.236Z,1.47
2023-02-20T11:38:33.450Z,1.30
2023-02-20T11:41:06.135Z,1.30
2023-02-20T11:44:00.102Z,1.23
2023-02-20T11:46:27.911Z,1.40
2023-02-20T11:48:54.671Z,1.17
2023-02-20T11:51:39.950Z,1.10
2023-02-20T11:54:30.163Z,1.30
2023-02-20T11:57:11.842Z,1.17
2023-02-20T11:59:40.836Z,1.10
2023-02-20T12:02:17.171Z,1.20
2023-02-20T12:05:11.163Z,1.23
2023-02-20T12:07:52.042Z,1.30
2023-02-20T12:10:24.709Z,1.07
2023-02-20T12:12:52.807Z,1.10
2023-02-20T12:15:23.569Z,1.10
2023-02-20T12:18:04.594Z,1.00
2023-02-20T12:20:32.527Z,1.60
2023-02-20T12:23:17.070Z,1.10
2023-02-20T12:25:59.628Z,1.20
2023-02-20T12:28:48.159Z,1.30
2023-02-20T12:31:25.944Z,1.20
2023-02-20T12:33:52.763Z,1.13
2023-02-20T12:36:31.654Z,1.47
2023-02-20T12:39:33.428Z,1.53
2023-02-20T12:42:25.096Z,0.90
2023-02-20T12:45:27.000Z,1.03
2023-02-20T12:48:18.506Z,1.10
2023-02-20T12:51:04.532Z,0.90
2023-02-20T12:53:45.681Z,0.80
2023-02-20T12:56:38.387Z,0.83
2023-02-20T12:59:15.969Z,1.13
2023-02-20T13:01:42.975Z,0.80
2023-02-20T13:04:45.564Z,0.60
2023-02-20T13:07:24.736Z,0.90
2023-02-20T13:10:20.369Z,0.73
2023-02-20T13:12:52.680Z,1.00
2023-02-20T13:15:43.730Z,0.70
2023-02-20T13:18:38.810Z,0.73
2023-02-20T13:21:11.160Z,0.30
2023-02-20T13:23:41.831Z,0.80
2023-02-20T13:26:27.258Z,0.77
2023-02-20T13:28:54.545Z,0.57
2023-02-20T13:31:43.876Z,0.50
2023-02-20T13:34:10.668Z,0.60
2023-02-20T13:36:39.318Z,0.60
2023-02-20T13:39:21.448Z,0.50
2023-02-20T13:41:54.424Z,0.50
2023-02-20T13:44:36.666Z,0.40
2023-02-20T13:47:38.042Z,0.27
2023-02-20T13:50:29.680Z,0.47
2023-02-20T13:52:57.944Z,0.50
2023-02-20T13:55:27.279Z,0.37
2023-02-20T13:57:56.249Z,0.40
2023-02-20T14:00:43.378Z,0.40
2023-02-20T14:03:26.568Z,0.30
2023-02-20T14:06:06.015Z,0.27
2023-02-20T14:08:32.875Z,0.23
2023-02-20T14:11:25.438Z,0.37
2023-02-20T14:13:54.556Z,0.30
2023-02-20T14:16:33.875Z,0.27
2023-02-20T14:19:14.547Z,0.60
2023-02-20T14:21:41.462Z,0.37
2023-02-20T14:24:20.131Z,0.30
2023-02-20T14:26:48.488Z,0.63
2023-02-20T14:29:33.534Z,0.57
2023-02-20T14:32:03.714Z,0.47
2023-02-20T14:34:54.127Z,0.50
2023-02-20T14:37:45.497Z,0.40
2023-02-20T14:40:22.438Z,0.50
2023-02-20T14:42:49.488Z,0.40
2023-02-20T14:45:24.679Z,0.40
2023-02-20T14:47:53.796Z,0.30
2023-02-20T14:50:29.723Z,0.40
2023-02-20T14:53:18.823Z,0.30
2023-02-20T14:55:45.957Z,0.67
2023-02-20T14:58:18.894Z,0.67
2023-02-20T15:00:48.877Z,0.60
2023-02-20T15:03:35.090Z,0.40
2023-02-20T15:06:04.229Z,0.30
2023-02-20T15:08:37.733Z,0.30
2023-02-20T15:11:14.024Z,0.70
2023-02-20T15:13:43.561Z,0.47
2023-02-20T15:16:25.165Z,0.53
2023-02-20T15:18:53.070Z,0.50
2023-02-20T15:21:38.231Z,0.30
2023-02-20T15:24:33.682Z,0.33
2023-02-20T15:27:11.959Z,0.30
2023-02-20T15:29:39.236Z,0.40
2023-02-20T15:32:22.479Z,0.27
2023-02-20T15:34:57.127Z,0.30
2023-02-20T15:37:38.501Z,0.47
2023-02-20T15:40:32.124Z,0.30
2023-02-20T15:43:04.417Z,0.43
2023-02-20T15:45:32.106Z,0.40
2023-02-20T15:47:59.199Z,0.50
2023-02-20T15:50:28.919Z,0.37
2023-02-20T15:52:58.635Z,0.70
2023-02-20T15:55:29.680Z,0.70
2023-02-20T15:57:58.489Z,0.57
2023-02-20T16:00:31.392Z,0.67
2023-02-20T16:02:59.512Z,0.50
2023-02-20T16:05:29.025Z,0.60
2023-02-20T16:07:56.064Z,0.60
2023-02-20T16:10:25.495Z,0.77
2023-02-20T16:12:58.536Z,0.60
2023-02-20T16:15:26.310Z,0.70
2023-02-20T16:17:53.790Z,1.00
2023-02-20T16:20:24.418Z,0.87
2023-02-20T16:22:51.491Z,0.70
2023-02-20T16:25:20.075Z,1.33
2023-02-20T16:27:52.900Z,0.70
2023-02-20T16:30:34.023Z,1.37
2023-02-20T16:33:08.883Z,0.97
2023-02-20T16:35:35.685Z,0.90
2023-02-20T16:38:02.433Z,1.40
2023-02-20T16:40:29.307Z,1.13
2023-02-20T16:42:56.133Z,1.47
2023-02-20T16:45:23.117Z,1.50
2023-02-20T16:47:52.853Z,1.50
2023-02-20T16:50:26.913Z,2.50
2023-02-20T16:52:55.678Z,2.00
2023-02-20T16:55:22.399Z,1.77
2023-02-20T16:57:50.616Z,1.77
2023-02-20T17:00:20.717Z,1.70
2023-02-20T17:02:48.223Z,1.90
2023-02-20T17:05:16.275Z,1.70
2023-02-20T17:07:43.262Z,1.40
2023-02-20T17:10:10.377Z,1.20
2023-02-20T17:12:37.566Z,1.80
2023-02-20T17:15:11.046Z,2.50
2023-02-20T17:17:42.615Z,1.17
2023-02-20T17:20:22.505Z,1.20
2023-02-20T17:23:04.609Z,2.60
2023-02-20T17:25:34.519Z,2.10
2023-02-20T17:28:05.252Z,4.33
2023-02-20T17:30:32.307Z,2.70
2023-02-20T17:33:04.478Z,5.10
2023-02-20T17:35:31.279Z,3.13
2023-02-20T17:37:58.422Z,3.40
2023-02-20T17:40:26.193Z,5.07
2023-02-20T17:42:53.111Z,5.93
2023-02-20T17:45:19.841Z,2.90
2023-02-20T17:47:46.806Z,2.17
2023-02-20T17:50:16.750Z,3.67
2023-02-20T17:52:45.070Z,3.53
2023-02-20T17:55:21.061Z,4.90
2023-02-20T17:57:47.859Z,1.23
2023-02-20T18:00:16.421Z,1.00
2023-02-20T18:02:43.421Z,0.87
2023-02-20T18:05:10.286Z,1.60
2023-02-20T18:07:37.448Z,2.73
2023-02-20T18:10:05.154Z,3.80
2023-02-20T18:12:32.283Z,2.47
2023-02-20T18:14:59.144Z,3.17
2023-02-20T18:17:26.187Z,2.83
2023-02-20T18:19:53.155Z,3.20
2023-02-20T18:22:20.160Z,3.17
2023-02-20T18:24:48.672Z,1.93
2023-02-20T18:27:15.523Z,2.13
2023-02-20T18:29:42.435Z,10.00
2023-02-20T18:32:09.415Z,3.70
2023-02-20T18:34:36.311Z,2.20
2023-02-20T18:37:03.109Z,2.10
2023-02-20T18:39:29.912Z,2.60
2023-02-20T18:41:58.135Z,3.60
2023-02-20T18:44:26.265Z,3.37
2023-02-20T18:46:54.056Z,3.87
2023-02-20T18:49:20.982Z,3.53
2023-02-20T18:51:47.827Z,5.00
2023-02-20T18:54:27.158Z,4.83
2023-02-20T18:56:55.162Z,3.03
2023-02-20T18:59:23.062Z,3.10
2023-02-20T19:01:49.839Z,3.23
2023-02-20T19:04:16.837Z,2.80
2023-02-20T19:06:47.065Z,3.03
2023-02-20T19:09:25.152Z,1.70
2023-02-20T19:11:56.846Z,1.83
2023-02-20T19:14:25.827Z,2.23
2023-02-20T19:16:56.140Z,2.40
2023-02-20T19:19:26.728Z,3.80
2023-02-20T19:21:54.546Z,2.93
2023-02-20T19:24:23.038Z,5.67
2023-02-20T19:26:50.582Z,6.80
2023-02-20T19:29:17.456Z,6.70
2023-02-20T19:31:44.721Z,5.40
2023-02-20T19:34:11.598Z,5.70
2023-02-20T19:36:41.101Z,10.17
2023-02-20T19:39:09.731Z,7.47
2023-02-20T19:41:38.082Z,4.43
2023-02-20T19:44:05.951Z,14.53
2023-02-20T19:46:33.089Z,9.10
2023-02-20T19:48:59.959Z,3.23
2023-02-20T19:51:28.732Z,3.20
2023-02-20T19:53:55.633Z,5.00
2023-02-20T19:56:22.570Z,2.60
2023-02-20T19:58:49.686Z,2.13
2023-02-20T20:01:18.637Z,2.00
2023-02-20T20:03:46.909Z,3.00
2023-02-20T20:06:16.561Z,3.77
2023-02-20T20:09:09.355Z,1.63
2023-02-20T20:11:31.557Z,1.80
2023-02-20T20:13:59.452Z,1.60
2023-02-20T20:16:26.402Z,1.73
2023-02-20T20:18:53.644Z,2.03
2023-02-20T20:21:21.650Z,1.67
2023-02-20T20:23:48.569Z,1.80
2023-02-20T20:26:15.723Z,2.00
2023-02-20T20:28:42.661Z,1.93
2023-02-20T20:31:09.513Z,2.53
2023-02-20T20:33:36.357Z,3.20
2023-02-20T20:36:03.249Z,2.10
2023-02-20T20:38:30.086Z,1.40
2023-02-20T20:40:56.886Z,1.50
2023-02-20T20:43:23.628Z,1.67
2023-02-20T20:45:50.606Z,1.40
2023-02-20T20:48:17.634Z,1.50
2023-02-20T20:50:44.374Z,1.40
2023-02-20T20:53:11.202Z,1.60
2023-02-20T20:55:38.167Z,1.80
2023-02-20T20:58:05.374Z,1.27
2023-02-20T21:00:34.144Z,1.60
2023-02-20T21:03:02.648Z,2.20
2023-02-20T21:05:32.094Z,2.27
2023-02-20T21:07:59.963Z,2.20
2023-02-20T21:10:27.281Z,11.43
2023-02-20T21:12:54.908Z,7.67
2023-02-20T21:15:23.254Z,7.57
2023-02-20T21:17:50.055Z,2.63
2023-02-20T21:20:21.417Z,4.33
2023-02-20T21:22:50.957Z,2.30
2023-02-20T21:25:19.390Z,1.67
2023-02-20T21:27:46.117Z,2.80
2023-02-20T21:30:13.142Z,2.40
2023-02-20T21:32:40.209Z,2.40
2023-02-20T21:35:07.576Z,2.70
2023-02-20T21:37:34.334Z,2.60
2023-02-20T21:40:02.099Z,2.70
2023-02-20T21:42:47.374Z,4.10
2023-02-20T21:45:14.161Z,8.83
2023-02-20T21:47:40.960Z,4.40
2023-02-20T21:50:08.449Z,5.23
2023-02-20T21:52:38.672Z,4.50
2023-02-20T21:55:09.142Z,4.50
2023-02-20T21:57:36.284Z,4.70
2023-02-20T22:00:05.623Z,4.20
2023-02-20T22:02:32.445Z,2.77
2023-02-20T22:04:59.183Z,3.00
2023-02-20T22:07:44.645Z,2.10
2023-02-20T22:10:30.013Z,2.00
2023-02-20T22:13:15.561Z,3.60
2023-02-20T22:16:00.905Z,4.00
2023-02-20T22:18:46.320Z,4.70
2023-02-20T22:21:37.254Z,4.37
2023-02-20T22:24:33.745Z,4.47
2023-02-20T22:27:23.426Z,3.10
2023-02-20T22:30:08.794Z,3.13
2023-02-20T22:32:54.310Z,4.60
2023-02-20T22:35:39.833Z,7.87
2023-02-20T22:38:24.987Z,3.57
2023-02-20T22:41:10.310Z,2.97
2023-02-20T22:43:55.707Z,2.73
2023-02-20T22:46:41.230Z,3.83
2023-02-20T22:49:27.369Z,4.13
2023-02-20T22:52:12.840Z,5.63
2023-02-20T22:55:05.176Z,3.73
2023-02-20T22:57:52.088Z,2.77
2023-02-20T23:00:38.190Z,2.07
2023-02-20T23:03:23.543Z,2.20
2023-02-20T23:06:17.446Z,2.00
2023-02-20T23:09:04.572Z,1.80
2023-02-20T23:11:54.850Z,1.57
2023-02-20T23:14:41.161Z,1.97
2023-02-20T23:17:35.516Z,1.90
2023-02-20T23:20:29.253Z,1.70
2023-02-20T23:23:14.633Z,1.93
2023-02-20T23:26:00.363Z,2.20
2023-02-20T23:28:46.529Z,1.60
2023-02-20T23:31:32.527Z,1.87
2023-02-20T23:34:18.445Z,1.90
2023-02-20T23:37:08.922Z,1.90
2023-02-20T23:39:54.750Z,2.40
2023-02-20T23:42:40.377Z,2.37
2023-02-20T23:45:27.021Z,2.60
2023-02-20T23:48:12.346Z,2.30
2023-02-20T23:50:57.726Z,2.60
2023-02-20T23:53:43.091Z,2.43
2023-02-20T23:56:28.541Z,2.10
2023-02-20T23:59:13.904Z,2.10
